Terminal Aerodrome Forecast
Issued by NWS Corpus Christi, TX

Home | Current Version | Previous Version | Text Only | Print | Product List | Glossary On
Versions: 1 2 3 4 5 6 7 8 9 10 11 12 13 14 15 16 17 18 19 20 21
000
FTUS44 KCRP 271741
TAFCRP
TAF
KCRP 271741Z 2718/2818 17015G20KT P6SM BKN030
     FM272000 15020G28KT P6SM SCT040 BKN250
     FM280400 15012KT P6SM SCT025 BKN250
     FM280800 16008KT P6SM OVC015
     FM281500 16012G20KT P6SM BKN030=

USA.gov is the U.S. government's official web portal to all federal, state and local government web resources and services.